Time;durP1;ratioP1;P1;durP2;ratioP2;P2;SDS_P1;SDS_P2;PMS_P1;PMS_P2;Temp;Humidity;BMP_temperature;BMP_pressure;BME280_temperature;BME280_humidity;BME280_pressure;Samples;Min_cycle;Max_cycle;Signal;HPM_P1;HPM_P2
2021/08/22 00:01:49;;;;;;;11.90;8.93;;;;;;;;;;4993412;28;20512;-84
2021/08/22 00:04:15;;;;;;;9.17;7.50;;;;;;;;;;4996563;28;20531;-84
2021/08/22 00:06:41;;;;;;;13.30;9.33;;;;;;;;;;4995712;28;20531;-83
2021/08/22 00:09:07;;;;;;;14.90;8.70;;;;;;;;;;4993213;28;20410;-83
2021/08/22 00:11:33;;;;;;;13.63;8.40;;;;;;;;;;4987543;28;20565;-84
2021/08/22 00:14:00;;;;;;;11.93;8.37;;;;;;;;;;4997882;28;20464;-83
2021/08/22 00:16:26;;;;;;;10.70;7.73;;;;;;;;;;4998609;28;20428;-84
2021/08/22 00:18:52;;;;;;;11.30;7.33;;;;;;;;;;5000238;28;20405;-84
2021/08/22 00:21:18;;;;;;;12.33;8.30;;;;;;;;;;4997313;28;20464;-83
2021/08/22 00:23:44;;;;;;;10.23;8.50;;;;;;;;;;4997482;28;20440;-83
2021/08/22 00:26:10;;;;;;;13.00;8.10;;;;;;;;;;4997038;28;20436;-84
2021/08/22 00:28:36;;;;;;;10.20;7.87;;;;;;;;;;4998800;28;20463;-84
2021/08/22 00:31:02;;;;;;;9.37;7.93;;;;;;;;;;4999093;28;20441;-84
2021/08/22 00:33:28;;;;;;;9.73;8.30;;;;;;;;;;4999294;28;20435;-84
2021/08/22 00:35:54;;;;;;;10.70;8.50;;;;;;;;;;4995815;28;20424;-84
2021/08/22 00:38:20;;;;;;;11.67;8.47;;;;;;;;;;4978625;28;20424;-84
2021/08/22 00:40:48;;;;;;;10.10;7.93;;;;;;;;;;4982361;28;20402;-82
2021/08/22 00:43:14;;;;;;;14.90;8.47;;;;;;;;;;4998235;28;20468;-84
2021/08/22 00:45:40;;;;;;;10.50;7.20;;;;;;;;;;4998466;28;20416;-84
2021/08/22 00:48:06;;;;;;;10.40;7.30;;;;;;;;;;4981290;28;20429;-84
2021/08/22 00:50:33;;;;;;;8.97;6.67;;;;;;;;;;4980868;28;20817;-84
2021/08/22 00:52:59;;;;;;;11.83;7.70;;;;;;;;;;5002043;28;20472;-84
2021/08/22 00:55:25;;;;;;;10.80;8.40;;;;;;;;;;5001515;28;20475;-84
2021/08/22 00:57:51;;;;;;;12.70;8.50;;;;;;;;;;5001701;28;20436;-84
2021/08/22 01:00:17;;;;;;;7.77;6.83;;;;;;;;;;5002755;28;20431;-84
2021/08/22 01:02:46;;;;;;;9.30;7.97;;;;;;;;;;5001539;28;20516;-84
2021/08/22 01:05:15;;;;;;;7.70;6.70;;;;;;;;;;5017894;23;20495;-66
2021/08/22 01:07:45;;;;;;;11.47;7.17;;;;;;;;;;5029897;28;20423;-67
2021/08/22 01:10:12;;;;;;;9.00;7.20;;;;;;;;;;5018142;28;20494;-67
2021/08/22 01:12:43;;;;;;;7.87;6.90;;;;;;;;;;5017660;28;20470;-66
2021/08/22 01:15:10;;;;;;;9.40;7.40;;;;;;;;;;5014430;28;20439;-66
2021/08/22 01:17:41;;;;;;;7.60;6.80;;;;;;;;;;5011668;28;20415;-67
2021/08/22 01:20:20;;;;;;;9.47;6.90;;;;;;;;;;5017634;28;20404;-67
2021/08/22 01:22:47;;;;;;;7.73;6.83;;;;;;;;;;4994947;28;20438;-67
2021/08/22 01:25:13;;;;;;;9.90;6.40;;;;;;;;;;4996091;28;20420;-67
2021/08/22 01:27:41;;;;;;;9.57;6.87;;;;;;;;;;4996955;28;20427;-67
2021/08/22 01:30:09;;;;;;;7.43;6.00;;;;;;;;;;4996387;28;20507;-67
2021/08/22 01:32:46;;;;;;;8.67;6.50;;;;;;;;;;4995514;28;20522;-67
2021/08/22 01:35:13;;;;;;;7.73;5.67;;;;;;;;;;4996302;28;20923;-68
2021/08/22 01:37:40;;;;;;;9.90;5.83;;;;;;;;;;5001677;28;20928;-68
2021/08/22 01:40:07;;;;;;;8.30;6.53;;;;;;;;;;4996261;28;20896;-68
2021/08/22 01:42:35;;;;;;;9.30;6.20;;;;;;;;;;4995408;28;20862;-68
2021/08/22 01:45:03;;;;;;;7.73;5.70;;;;;;;;;;4996347;28;20768;-68
2021/08/22 01:47:30;;;;;;;8.27;5.83;;;;;;;;;;5002933;28;20911;-68
2021/08/22 01:49:57;;;;;;;7.60;5.90;;;;;;;;;;4996060;28;20830;-68
2021/08/22 01:52:23;;;;;;;7.50;6.17;;;;;;;;;;4995287;28;20526;-68
2021/08/22 01:54:50;;;;;;;9.43;6.47;;;;;;;;;;4994940;28;20444;-68
2021/08/22 01:57:16;;;;;;;7.00;5.43;;;;;;;;;;5004853;28;20443;-68
2021/08/22 01:59:42;;;;;;;6.60;5.10;;;;;;;;;;4995972;28;20404;-68
2021/08/22 02:02:08;;;;;;;7.07;5.00;;;;;;;;;;4994860;28;20921;-68
2021/08/22 02:04:40;;;;;;;8.63;5.57;;;;;;;;;;4994614;28;20448;-68
2021/08/22 02:07:09;;;;;;;7.10;5.63;;;;;;;;;;5006721;28;20455;-68
2021/08/22 02:09:58;;;;;;;8.33;5.13;;;;;;;;;;4995793;28;20411;-68
2021/08/22 02:12:25;;;;;;;6.07;5.03;;;;;;;;;;4994151;28;20476;-68
2021/08/22 02:15:14;;;;;;;6.43;5.20;;;;;;;;;;4995285;28;20432;-71
2021/08/22 02:17:46;;;;;;;6.50;5.80;;;;;;;;;;4997644;28;20437;-68
2021/08/22 02:20:12;;;;;;;6.90;5.57;;;;;;;;;;4995538;28;20405;-68
2021/08/22 02:22:42;;;;;;;6.43;5.30;;;;;;;;;;4994364;28;21042;-68
2021/08/22 02:25:08;;;;;;;6.97;5.50;;;;;;;;;;4998790;28;20411;-68
2021/08/22 02:27:34;;;;;;;6.53;5.37;;;;;;;;;;5006537;28;20439;-68
2021/08/22 02:30:00;;;;;;;5.70;4.83;;;;;;;;;;4995378;28;20432;-68
2021/08/22 02:32:26;;;;;;;7.33;5.67;;;;;;;;;;4994256;28;20552;-68
2021/08/22 02:34:52;;;;;;;7.20;5.20;;;;;;;;;;4997817;28;20500;-68
2021/08/22 02:37:19;;;;;;;7.73;5.93;;;;;;;;;;5009126;28;20836;-68
2021/08/22 02:39:47;;;;;;;6.13;4.97;;;;;;;;;;4995222;28;20823;-68
2021/08/22 02:42:13;;;;;;;9.53;6.43;;;;;;;;;;4993404;28;20967;-68
2021/08/22 02:44:39;;;;;;;6.80;5.23;;;;;;;;;;4997238;28;20429;-68
2021/08/22 02:47:05;;;;;;;6.30;5.70;;;;;;;;;;5011134;28;20527;-68
2021/08/22 02:49:31;;;;;;;9.10;5.40;;;;;;;;;;4995155;28;20407;-68
2021/08/22 02:51:57;;;;;;;12.33;5.90;;;;;;;;;;4994117;28;20575;-68
2021/08/22 02:54:23;;;;;;;5.90;4.97;;;;;;;;;;4994444;28;20444;-68
2021/08/22 02:56:49;;;;;;;7.50;5.33;;;;;;;;;;4994258;28;20433;-69
2021/08/22 02:59:15;;;;;;;6.47;4.87;;;;;;;;;;4993403;28;20431;-68
2021/08/22 03:01:41;;;;;;;7.93;5.33;;;;;;;;;;4992755;28;20432;-68
2021/08/22 03:04:07;;;;;;;7.87;5.70;;;;;;;;;;4994639;28;20455;-68
2021/08/22 03:06:33;;;;;;;6.83;5.67;;;;;;;;;;5013018;28;20438;-68
2021/08/22 03:09:02;;;;;;;6.07;4.57;;;;;;;;;;4995858;28;20810;-68
2021/08/22 03:11:28;;;;;;;7.23;6.10;;;;;;;;;;4994406;28;20456;-68
2021/08/22 03:13:54;;;;;;;6.50;4.77;;;;;;;;;;4993567;28;20506;-70
2021/08/22 03:16:20;;;;;;;7.50;5.40;;;;;;;;;;5014329;28;20817;-68
2021/08/22 03:18:46;;;;;;;7.47;5.77;;;;;;;;;;4997035;28;20454;-68
2021/08/22 03:21:12;;;;;;;5.83;5.20;;;;;;;;;;4994357;28;20401;-68
2021/08/22 03:23:38;;;;;;;7.77;6.00;;;;;;;;;;4993521;28;20980;-68
2021/08/22 03:26:04;;;;;;;6.37;4.97;;;;;;;;;;5013647;28;20740;-68
2021/08/22 03:28:30;;;;;;;5.87;5.27;;;;;;;;;;4999736;28;20482;-68
2021/08/22 03:30:56;;;;;;;6.43;5.10;;;;;;;;;;4994250;28;20436;-68
2021/08/22 03:33:22;;;;;;;8.70;5.10;;;;;;;;;;4993962;28;20475;-67
2021/08/22 03:35:48;;;;;;;11.63;5.30;;;;;;;;;;4994039;28;20428;-68
2021/08/22 03:38:14;;;;;;;7.40;4.77;;;;;;;;;;4994797;28;20535;-67
2021/08/22 03:40:40;;;;;;;8.50;5.23;;;;;;;;;;4995738;28;20941;-67
2021/08/22 03:43:06;;;;;;;7.60;5.23;;;;;;;;;;4995396;28;20448;-67
2021/08/22 03:45:33;;;;;;;6.00;5.20;;;;;;;;;;5013427;28;20420;-67
2021/08/22 03:47:59;;;;;;;7.50;5.57;;;;;;;;;;5007365;28;20428;-67
2021/08/22 03:50:25;;;;;;;8.50;5.50;;;;;;;;;;4995821;28;20416;-67
2021/08/22 03:52:52;;;;;;;6.50;5.20;;;;;;;;;;4994753;28;20839;-67
2021/08/22 03:55:21;;;;;;;7.90;6.53;;;;;;;;;;5012418;28;20414;-67
2021/08/22 03:57:47;;;;;;;8.87;5.40;;;;;;;;;;5009075;28;20451;-67
2021/08/22 04:00:14;;;;;;;10.03;6.43;;;;;;;;;;4995155;28;20423;-67
2021/08/22 04:02:40;;;;;;;9.50;5.70;;;;;;;;;;4992595;28;20780;-68
2021/08/22 04:05:08;;;;;;;8.47;6.17;;;;;;;;;;5011866;28;20817;-68
2021/08/22 04:07:34;;;;;;;13.50;6.13;;;;;;;;;;5010647;28;20451;-68
2021/08/22 04:10:01;;;;;;;9.57;6.30;;;;;;;;;;4994401;28;20554;-68
2021/08/22 04:12:28;;;;;;;8.63;6.43;;;;;;;;;;4994423;28;20475;-68
2021/08/22 04:14:54;;;;;;;11.30;7.70;;;;;;;;;;5012312;28;20439;-68
2021/08/22 04:17:20;;;;;;;9.43;6.37;;;;;;;;;;5013273;28;20407;-67
2021/08/22 04:19:46;;;;;;;12.43;6.47;;;;;;;;;;4995230;28;20444;-67
2021/08/22 04:22:12;;;;;;;10.60;7.03;;;;;;;;;;4995605;28;20409;-68
2021/08/22 04:24:38;;;;;;;8.47;6.33;;;;;;;;;;4994234;28;20449;-67
2021/08/22 04:27:05;;;;;;;9.07;5.80;;;;;;;;;;4996968;28;20440;-67
2021/08/22 04:29:37;;;;;;;9.20;7.10;;;;;;;;;;4996732;28;20432;-68
2021/08/22 04:32:03;;;;;;;9.53;7.23;;;;;;;;;;4997711;28;20443;-67
2021/08/22 04:34:29;;;;;;;11.90;6.93;;;;;;;;;;4996743;28;20451;-69
2021/08/22 04:36:55;;;;;;;9.30;6.60;;;;;;;;;;4997554;28;20397;-68
2021/08/22 04:39:21;;;;;;;8.73;6.80;;;;;;;;;;4996602;28;20852;-68
2021/08/22 04:41:47;;;;;;;8.00;6.33;;;;;;;;;;4997411;28;20436;-68
2021/08/22 04:44:14;;;;;;;9.10;6.57;;;;;;;;;;4996486;28;20452;-68
2021/08/22 04:46:40;;;;;;;7.67;6.33;;;;;;;;;;4997351;28;20408;-68
2021/08/22 04:49:06;;;;;;;9.37;6.27;;;;;;;;;;4996292;28;20428;-68
2021/08/22 04:51:32;;;;;;;9.00;6.23;;;;;;;;;;4997400;28;20456;-68
2021/08/22 04:53:59;;;;;;;7.43;5.83;;;;;;;;;;4996397;28;21018;-68
2021/08/22 04:56:25;;;;;;;9.13;6.90;;;;;;;;;;4997223;28;20597;-68
2021/08/22 04:58:51;;;;;;;7.73;6.17;;;;;;;;;;4997798;28;20428;-67
2021/08/22 05:01:17;;;;;;;8.23;6.83;;;;;;;;;;4999243;28;20400;-67
2021/08/22 05:03:43;;;;;;;9.10;6.50;;;;;;;;;;4998085;28;20454;-67
2021/08/22 05:06:09;;;;;;;7.63;5.37;;;;;;;;;;4998767;28;20514;-68
2021/08/22 05:08:36;;;;;;;8.70;6.00;;;;;;;;;;4997274;28;20513;-67
2021/08/22 05:11:02;;;;;;;9.80;6.00;;;;;;;;;;4998160;28;20403;-67
2021/08/22 05:13:28;;;;;;;10.13;6.13;;;;;;;;;;4995807;28;20468;-67
2021/08/22 05:15:54;;;;;;;8.53;7.00;;;;;;;;;;4996998;28;20439;-67
2021/08/22 05:18:24;;;;;;;8.17;5.97;;;;;;;;;;4996898;28;20435;-67
2021/08/22 05:20:50;;;;;;;7.77;5.67;;;;;;;;;;4997741;28;20495;-67
2021/08/22 05:23:16;;;;;;;6.97;5.53;;;;;;;;;;4996887;28;20432;-67
2021/08/22 05:25:42;;;;;;;8.00;5.80;;;;;;;;;;4997765;28;20400;-67
2021/08/22 05:28:09;;;;;;;8.50;5.47;;;;;;;;;;4996453;28;20420;-67
2021/08/22 05:30:35;;;;;;;10.43;6.00;;;;;;;;;;4996441;28;20856;-67
2021/08/22 05:33:01;;;;;;;9.63;5.63;;;;;;;;;;4995802;28;20829;-67
2021/08/22 05:35:27;;;;;;;10.43;6.50;;;;;;;;;;4997582;28;20404;-67
2021/08/22 05:37:53;;;;;;;6.67;5.30;;;;;;;;;;4997062;28;20409;-67
2021/08/22 05:40:19;;;;;;;8.90;5.47;;;;;;;;;;4998444;28;20415;-68
2021/08/22 05:42:45;;;;;;;7.40;4.80;;;;;;;;;;4998802;28;20499;-67
2021/08/22 05:45:11;;;;;;;9.40;5.50;;;;;;;;;;4998010;28;20941;-67
2021/08/22 05:47:38;;;;;;;6.47;4.77;;;;;;;;;;4997540;28;20444;-67
2021/08/22 05:50:04;;;;;;;7.90;4.87;;;;;;;;;;4995006;28;20949;-67
2021/08/22 05:52:36;;;;;;;7.83;5.03;;;;;;;;;;4996957;28;20979;-68
2021/08/22 05:55:04;;;;;;;6.00;4.47;;;;;;;;;;4995970;28;20841;-68
2021/08/22 05:57:30;;;;;;;5.80;4.30;;;;;;;;;;4996350;28;20920;-67
2021/08/22 05:59:56;;;;;;;5.70;4.43;;;;;;;;;;4995539;28;20476;-67
2021/08/22 06:02:22;;;;;;;6.20;4.40;;;;;;;;;;4996483;28;20404;-67
2021/08/22 06:04:48;;;;;;;6.57;4.40;;;;;;;;;;4995479;28;20847;-68
2021/08/22 06:07:20;;;;;;;5.97;4.17;;;;;;;;;;4996214;28;20515;-67
2021/08/22 06:09:50;;;;;;;6.73;4.00;;;;;;;;;;4995707;28;20421;-68
2021/08/22 06:12:19;;;;;;;7.60;4.63;;;;;;;;;;4996384;28;20462;-67
2021/08/22 06:14:45;;;;;;;5.87;3.90;;;;;;;;;;4995333;28;20527;-67
2021/08/22 06:17:11;;;;;;;6.60;3.90;;;;;;;;;;4996163;28;20504;-67
2021/08/22 06:19:37;;;;;;;5.47;4.20;;;;;;;;;;4995218;28;20428;-67
2021/08/22 06:22:06;;;;;;;8.03;3.23;;;;;;;;;;4996485;28;20530;-68
2021/08/22 06:24:33;;;;;;;5.00;3.27;;;;;;;;;;4993942;28;20542;-67
2021/08/22 06:26:59;;;;;;;5.17;2.70;;;;;;;;;;4995852;28;20421;-67
2021/08/22 06:29:25;;;;;;;4.03;3.23;;;;;;;;;;4995675;28;20436;-67
2021/08/22 06:31:51;;;;;;;3.80;3.00;;;;;;;;;;4996949;28;21031;-68
2021/08/22 06:34:17;;;;;;;4.23;3.07;;;;;;;;;;4996536;28;20449;-68
2021/08/22 06:36:45;;;;;;;4.30;3.20;;;;;;;;;;4996243;28;20435;-68
2021/08/22 06:39:11;;;;;;;3.90;3.30;;;;;;;;;;4996188;28;21003;-68
2021/08/22 06:41:37;;;;;;;3.97;2.70;;;;;;;;;;4997139;28;20404;-68
2021/08/22 06:44:03;;;;;;;4.33;2.90;;;;;;;;;;4996261;28;20480;-67
2021/08/22 06:46:30;;;;;;;5.57;2.93;;;;;;;;;;4997040;28;20416;-68
2021/08/22 06:48:56;;;;;;;4.23;2.93;;;;;;;;;;4994264;28;20423;-67
2021/08/22 06:51:22;;;;;;;6.50;3.27;;;;;;;;;;4997108;28;20444;-67
2021/08/22 06:53:49;;;;;;;4.40;3.03;;;;;;;;;;4996572;28;20420;-67
2021/08/22 06:56:15;;;;;;;4.33;2.50;;;;;;;;;;4996798;28;20448;-67
2021/08/22 06:58:41;;;;;;;3.80;3.10;;;;;;;;;;4996453;28;20765;-68
2021/08/22 07:01:07;;;;;;;5.40;3.33;;;;;;;;;;4994860;28;20436;-68
2021/08/22 07:03:33;;;;;;;3.87;2.90;;;;;;;;;;4996115;28;20424;-68
2021/08/22 07:06:00;;;;;;;3.93;3.20;;;;;;;;;;4993269;28;20575;-68
2021/08/22 07:08:26;;;;;;;4.20;2.60;;;;;;;;;;4987373;28;20471;-68
2021/08/22 07:10:52;;;;;;;5.63;3.60;;;;;;;;;;4993968;28;20429;-68
2021/08/22 07:13:18;;;;;;;5.37;3.10;;;;;;;;;;4995896;28;20547;-68
2021/08/22 07:15:44;;;;;;;4.63;2.90;;;;;;;;;;4994948;28;20461;-68
2021/08/22 07:18:10;;;;;;;4.63;2.47;;;;;;;;;;4996057;28;20408;-68
2021/08/22 07:20:36;;;;;;;4.13;3.03;;;;;;;;;;4994785;28;20782;-68
2021/08/22 07:23:02;;;;;;;3.40;2.40;;;;;;;;;;4994751;28;20416;-68
2021/08/22 07:25:28;;;;;;;4.00;3.00;;;;;;;;;;4992394;28;20443;-68
2021/08/22 07:27:54;;;;;;;3.47;2.67;;;;;;;;;;4994504;28;20893;-68
2021/08/22 07:30:22;;;;;;;3.80;2.63;;;;;;;;;;4983781;28;20448;-70
2021/08/22 07:32:48;;;;;;;4.50;2.90;;;;;;;;;;4989807;28;20457;-67
2021/08/22 07:35:14;;;;;;;4.30;2.73;;;;;;;;;;4988081;28;20464;-70
2021/08/22 07:37:40;;;;;;;4.87;2.77;;;;;;;;;;4984117;28;20784;-69
2021/08/22 07:40:06;;;;;;;3.30;2.80;;;;;;;;;;4992520;28;20475;-69
2021/08/22 07:42:32;;;;;;;4.80;2.90;;;;;;;;;;4994636;28;20830;-67
2021/08/22 07:44:58;;;;;;;4.70;2.67;;;;;;;;;;4987100;28;20460;-65
2021/08/22 07:47:24;;;;;;;3.40;2.50;;;;;;;;;;4994230;28;20796;-67
2021/08/22 07:49:50;;;;;;;5.73;2.60;;;;;;;;;;4992271;28;20789;-67
2021/08/22 07:52:16;;;;;;;3.90;2.70;;;;;;;;;;4977288;28;20532;-66
2021/08/22 07:54:42;;;;;;;6.30;2.57;;;;;;;;;;4992180;28;20527;-67
2021/08/22 07:57:08;;;;;;;4.83;3.07;;;;;;;;;;4994240;28;20496;-67
2021/08/22 07:59:35;;;;;;;3.60;2.40;;;;;;;;;;4994169;28;20905;-75
2021/08/22 08:02:01;;;;;;;4.13;2.50;;;;;;;;;;4992454;28;20426;-66
2021/08/22 08:04:27;;;;;;;3.63;2.37;;;;;;;;;;4993594;28;20444;-66
2021/08/22 08:06:53;;;;;;;3.77;2.47;;;;;;;;;;4993133;28;20432;-68
2021/08/22 08:09:19;;;;;;;3.73;2.80;;;;;;;;;;4994597;28;20458;-66
2021/08/22 08:11:45;;;;;;;4.50;2.57;;;;;;;;;;4993362;28;21029;-67
2021/08/22 08:14:11;;;;;;;4.00;2.57;;;;;;;;;;4993881;28;20518;-67
2021/08/22 08:16:37;;;;;;;3.73;2.43;;;;;;;;;;4992915;28;20435;-67
2021/08/22 08:19:03;;;;;;;3.33;2.40;;;;;;;;;;4992877;28;20519;-67
2021/08/22 08:21:29;;;;;;;3.60;2.60;;;;;;;;;;4991350;28;20442;-68
2021/08/22 08:23:56;;;;;;;4.03;2.40;;;;;;;;;;4993656;28;20439;-68
2021/08/22 08:26:22;;;;;;;4.17;3.17;;;;;;;;;;4992006;28;20442;-68
2021/08/22 08:28:48;;;;;;;3.80;2.80;;;;;;;;;;4993708;28;20408;-68
2021/08/22 08:31:14;;;;;;;4.27;3.40;;;;;;;;;;4987518;28;20451;-68
2021/08/22 08:33:40;;;;;;;6.27;3.30;;;;;;;;;;4993592;28;20474;-68
2021/08/22 08:36:06;;;;;;;5.43;3.33;;;;;;;;;;4985163;28;20424;-68
2021/08/22 08:38:32;;;;;;;3.70;2.63;;;;;;;;;;4977284;28;20919;-69
2021/08/22 08:41:02;;;;;;;3.83;2.93;;;;;;;;;;4990295;28;20432;-68
2021/08/22 08:43:28;;;;;;;3.33;2.70;;;;;;;;;;4989291;28;20501;-68
2021/08/22 08:45:54;;;;;;;3.83;2.17;;;;;;;;;;4989408;28;20929;-68
2021/08/22 08:48:25;;;;;;;3.57;2.67;;;;;;;;;;4986719;28;20429;-68
2021/08/22 08:51:09;;;;;;;4.00;2.50;;;;;;;;;;4993917;28;20462;-68
2021/08/22 08:53:45;;;;;;;5.47;2.77;;;;;;;;;;4991506;28;20478;-68
2021/08/22 08:56:11;;;;;;;4.07;2.80;;;;;;;;;;4985002;28;20432;-70
2021/08/22 08:58:37;;;;;;;3.47;2.60;;;;;;;;;;4979365;28;20427;-69
2021/08/22 09:01:03;;;;;;;4.63;2.50;;;;;;;;;;4992108;28;20424;-69
2021/08/22 09:03:29;;;;;;;4.57;2.90;;;;;;;;;;4993150;28;20841;-69
2021/08/22 09:06:11;;;;;;;4.33;2.77;;;;;;;;;;4992147;28;20451;-68
2021/08/22 09:08:52;;;;;;;4.00;2.63;;;;;;;;;;4993084;28;20407;-68
2021/08/22 09:11:37;;;;;;;3.90;2.80;;;;;;;;;;4992141;28;20428;-68
2021/08/22 09:14:21;;;;;;;3.60;2.43;;;;;;;;;;4996542;28;20511;-69
2021/08/22 09:16:59;;;;;;;4.17;3.00;;;;;;;;;;4995800;28;20431;-69
2021/08/22 09:19:44;;;;;;;4.37;2.30;;;;;;;;;;4996850;28;20401;-69
2021/08/22 09:22:10;;;;;;;4.97;2.77;;;;;;;;;;4994076;28;20460;-69
2021/08/22 09:24:54;;;;;;;3.50;2.50;;;;;;;;;;4995664;28;20450;-70
2021/08/22 09:27:39;;;;;;;4.47;3.00;;;;;;;;;;4995734;28;20939;-68
2021/08/22 09:30:14;;;;;;;3.90;2.43;;;;;;;;;;4995708;28;20412;-69
2021/08/22 09:32:59;;;;;;;2.83;2.10;;;;;;;;;;4976861;28;20448;-70
2021/08/22 09:35:30;;;;;;;3.37;2.40;;;;;;;;;;4995046;28;20555;-69
2021/08/22 09:38:22;;;;;;;4.20;2.77;;;;;;;;;;4996712;28;20404;-70
2021/08/22 09:41:07;;;;;;;3.90;2.57;;;;;;;;;;4988654;28;20503;-70
2021/08/22 09:43:33;;;;;;;3.43;2.67;;;;;;;;;;4996207;28;20908;-70
2021/08/22 09:46:31;;;;;;;4.03;2.80;;;;;;;;;;4994453;28;20526;-70
2021/08/22 09:49:15;;;;;;;4.20;2.90;;;;;;;;;;4994899;28;20856;-70
2021/08/22 09:51:44;;;;;;;4.60;3.33;;;;;;;;;;4995152;28;20487;-68
2021/08/22 09:54:29;;;;;;;8.83;3.13;;;;;;;;;;4996100;28;20481;-69
2021/08/22 09:57:01;;;;;;;3.73;2.60;;;;;;;;;;4995181;28;20436;-69
2021/08/22 09:59:30;;;;;;;4.07;2.20;;;;;;;;;;4994954;28;20917;-69
2021/08/22 10:02:05;;;;;;;5.70;2.90;;;;;;;;;;4995098;28;20915;-69
2021/08/22 10:04:50;;;;;;;4.40;2.73;;;;;;;;;;4995696;28;20447;-68
2021/08/22 10:07:19;;;;;;;5.80;3.20;;;;;;;;;;4992100;28;20428;-67
2021/08/22 10:10:00;;;;;;;3.57;2.73;;;;;;;;;;4995664;28;20967;-67
2021/08/22 10:12:26;;;;;;;4.70;2.80;;;;;;;;;;4994872;28;20539;-67
2021/08/22 10:14:52;;;;;;;8.10;2.83;;;;;;;;;;4995974;28;20972;-68
2021/08/22 10:17:21;;;;;;;5.13;2.90;;;;;;;;;;4994722;28;20439;-68
2021/08/22 10:19:48;;;;;;;3.83;2.40;;;;;;;;;;4994794;28;20412;-68
2021/08/22 10:22:18;;;;;;;4.30;3.00;;;;;;;;;;4995086;28;20526;-68
2021/08/22 10:24:58;;;;;;;4.13;2.50;;;;;;;;;;4994744;28;20435;-68
2021/08/22 10:27:30;;;;;;;4.77;2.83;;;;;;;;;;4994833;28;20929;-68
2021/08/22 10:29:58;;;;;;;5.83;2.97;;;;;;;;;;4995701;28;20401;-68
2021/08/22 10:32:24;;;;;;;3.80;2.70;;;;;;;;;;4994891;28;20541;-69
2021/08/22 10:35:09;;;;;;;4.33;2.80;;;;;;;;;;4995380;28;20420;-68
2021/08/22 10:37:35;;;;;;;2.87;2.20;;;;;;;;;;4994791;28;20462;-68
2021/08/22 10:40:20;;;;;;;3.77;2.70;;;;;;;;;;4995386;28;20458;-68
2021/08/22 10:42:46;;;;;;;4.30;2.93;;;;;;;;;;4993282;28;20432;-68
2021/08/22 10:45:32;;;;;;;5.20;3.33;;;;;;;;;;4995187;28;20408;-68
2021/08/22 10:47:58;;;;;;;7.50;2.50;;;;;;;;;;4994692;28;20497;-68
2021/08/22 10:50:24;;;;;;;5.20;2.90;;;;;;;;;;4995304;28;20412;-68
2021/08/22 10:52:50;;;;;;;3.63;2.60;;;;;;;;;;4992963;28;20516;-68
2021/08/22 10:55:17;;;;;;;4.63;3.20;;;;;;;;;;4995184;28;20790;-68
2021/08/22 10:57:48;;;;;;;3.77;2.70;;;;;;;;;;4994255;28;20467;-68
2021/08/22 11:00:17;;;;;;;4.13;2.60;;;;;;;;;;4995282;28;20384;-68
2021/08/22 11:02:43;;;;;;;4.30;2.90;;;;;;;;;;4992338;28;20586;-68
2021/08/22 11:05:16;;;;;;;4.53;3.10;;;;;;;;;;4994750;28;20482;-68
2021/08/22 11:07:52;;;;;;;5.27;2.90;;;;;;;;;;4993831;28;20444;-68
2021/08/22 11:10:20;;;;;;;4.23;2.60;;;;;;;;;;4994807;28;20897;-68
2021/08/22 11:12:46;;;;;;;5.50;3.20;;;;;;;;;;4993692;28;20470;-68
2021/08/22 11:15:25;;;;;;;3.77;2.80;;;;;;;;;;4993684;28;20434;-68
2021/08/22 11:17:52;;;;;;;4.40;3.13;;;;;;;;;;4993672;28;20905;-68
2021/08/22 11:20:19;;;;;;;3.83;2.37;;;;;;;;;;4994690;28;20407;-68
2021/08/22 11:22:45;;;;;;;4.17;2.77;;;;;;;;;;4993748;28;20448;-68
2021/08/22 11:25:12;;;;;;;4.23;3.00;;;;;;;;;;4994646;28;20416;-68
2021/08/22 11:27:38;;;;;;;4.80;2.90;;;;;;;;;;4993968;28;20435;-68
2021/08/22 11:30:08;;;;;;;3.90;2.90;;;;;;;;;;4994580;28;20405;-67
2021/08/22 11:32:35;;;;;;;5.00;3.07;;;;;;;;;;4991567;28;20464;-67
2021/08/22 11:35:14;;;;;;;3.50;2.80;;;;;;;;;;4993449;28;20436;-68
2021/08/22 11:37:40;;;;;;;4.50;3.20;;;;;;;;;;4993481;28;20432;-67
2021/08/22 11:40:07;;;;;;;4.10;3.23;;;;;;;;;;4994437;28;20459;-67
2021/08/22 11:42:34;;;;;;;3.27;2.30;;;;;;;;;;4993164;28;20502;-67
2021/08/22 11:45:07;;;;;;;4.23;2.57;;;;;;;;;;4993408;28;20510;-68
2021/08/22 11:47:33;;;;;;;5.27;3.00;;;;;;;;;;4992441;28;20440;-68
2021/08/22 11:49:59;;;;;;;4.10;2.90;;;;;;;;;;4994300;28;20546;-68
2021/08/22 11:52:25;;;;;;;4.37;2.70;;;;;;;;;;4992902;28;20885;-68
2021/08/22 11:54:52;;;;;;;6.47;3.63;;;;;;;;;;4993782;28;20493;-68
2021/08/22 11:57:19;;;;;;;4.97;2.90;;;;;;;;;;4992998;28;20835;-68
2021/08/22 11:59:56;;;;;;;3.70;2.73;;;;;;;;;;4992670;28;20408;-68
2021/08/22 12:02:25;;;;;;;4.17;3.10;;;;;;;;;;4992132;28;20459;-68
2021/08/22 12:05:09;;;;;;;7.17;3.60;;;;;;;;;;4993622;28;20447;-67
2021/08/22 12:07:35;;;;;;;3.83;2.70;;;;;;;;;;4992814;28;20924;-68
2021/08/22 12:10:01;;;;;;;4.40;2.80;;;;;;;;;;4993747;28;20439;-68
2021/08/22 12:12:27;;;;;;;4.07;3.00;;;;;;;;;;4992300;28;20474;-68
2021/08/22 12:14:54;;;;;;;3.87;2.90;;;;;;;;;;4993272;28;20425;-68
2021/08/22 12:17:23;;;;;;;4.00;2.70;;;;;;;;;;4992007;28;20478;-68
2021/08/22 12:19:49;;;;;;;3.70;2.90;;;;;;;;;;4993942;28;20813;-68
2021/08/22 12:22:15;;;;;;;4.50;3.20;;;;;;;;;;4992416;28;20549;-68
2021/08/22 12:24:45;;;;;;;4.20;2.70;;;;;;;;;;4993423;28;20431;-68
2021/08/22 12:27:11;;;;;;;4.43;3.00;;;;;;;;;;4992979;28;20840;-68
2021/08/22 12:29:39;;;;;;;3.70;2.90;;;;;;;;;;4992274;28;20409;-69
2021/08/22 12:32:09;;;;;;;6.03;3.57;;;;;;;;;;4992600;28;20472;-69
2021/08/22 12:34:35;;;;;;;5.17;3.20;;;;;;;;;;4992597;28;20451;-69
2021/08/22 12:37:12;;;;;;;4.13;3.00;;;;;;;;;;4992806;28;20404;-69
2021/08/22 12:39:38;;;;;;;4.13;3.30;;;;;;;;;;4993306;28;20462;-69
2021/08/22 12:42:04;;;;;;;4.90;3.00;;;;;;;;;;4992786;28;20435;-69
2021/08/22 12:44:31;;;;;;;4.73;2.70;;;;;;;;;;4993338;28;20459;-69
2021/08/22 12:46:57;;;;;;;4.10;3.20;;;;;;;;;;4992616;28;20408;-70
2021/08/22 12:49:23;;;;;;;4.90;3.17;;;;;;;;;;4996095;28;20507;-69
2021/08/22 12:51:49;;;;;;;4.60;2.60;;;;;;;;;;4996272;28;20521;-71
2021/08/22 12:54:15;;;;;;;4.27;2.63;;;;;;;;;;4997105;28;20843;-69
2021/08/22 12:56:41;;;;;;;4.27;3.10;;;;;;;;;;4994607;28;20424;-69
2021/08/22 12:59:07;;;;;;;4.50;3.00;;;;;;;;;;4996255;28;20481;-69
2021/08/22 13:01:33;;;;;;;6.93;3.10;;;;;;;;;;4997043;28;20405;-69
2021/08/22 13:04:00;;;;;;;7.63;3.53;;;;;;;;;;4996299;28;20952;-70
2021/08/22 13:06:26;;;;;;;5.47;3.27;;;;;;;;;;4995520;28;20454;-69
2021/08/22 13:08:52;;;;;;;3.50;2.70;;;;;;;;;;4995976;28;20427;-69
2021/08/22 13:11:19;;;;;;;4.80;3.27;;;;;;;;;;4996820;28;20400;-69
2021/08/22 13:13:46;;;;;;;3.70;2.70;;;;;;;;;;4995959;28;20477;-69
2021/08/22 13:16:12;;;;;;;3.97;3.00;;;;;;;;;;4996958;28;20947;-69
2021/08/22 13:18:38;;;;;;;3.40;2.80;;;;;;;;;;4995913;28;20438;-69
2021/08/22 13:21:06;;;;;;;4.40;3.00;;;;;;;;;;4997176;28;20404;-69
2021/08/22 13:23:32;;;;;;;3.20;2.40;;;;;;;;;;4995954;28;20793;-69
2021/08/22 13:25:58;;;;;;;3.90;2.80;;;;;;;;;;4996928;28;20873;-69
2021/08/22 13:28:25;;;;;;;4.20;3.07;;;;;;;;;;4995547;28;20424;-69
2021/08/22 13:30:51;;;;;;;5.37;3.60;;;;;;;;;;4996973;28;20404;-69
2021/08/22 13:33:17;;;;;;;4.07;2.93;;;;;;;;;;4996001;28;20479;-69
2021/08/22 13:35:43;;;;;;;4.00;3.10;;;;;;;;;;4996563;28;20427;-69
2021/08/22 13:38:09;;;;;;;4.13;2.77;;;;;;;;;;4995564;28;20937;-69
2021/08/22 13:40:35;;;;;;;5.17;3.50;;;;;;;;;;4995521;28;20772;-69
2021/08/22 13:43:01;;;;;;;4.50;2.90;;;;;;;;;;4994342;28;20452;-69
2021/08/22 13:45:27;;;;;;;5.13;3.30;;;;;;;;;;4996310;28;20404;-69
2021/08/22 13:47:53;;;;;;;4.10;2.80;;;;;;;;;;4994299;28;20440;-70
2021/08/22 13:50:20;;;;;;;3.90;2.67;;;;;;;;;;4996210;28;20470;-69
2021/08/22 13:52:46;;;;;;;4.50;3.20;;;;;;;;;;4993481;28;20507;-69
2021/08/22 13:55:12;;;;;;;4.47;2.63;;;;;;;;;;4996105;28;20404;-69
2021/08/22 13:57:38;;;;;;;4.00;3.17;;;;;;;;;;4993614;28;20428;-72
2021/08/22 14:00:05;;;;;;;6.13;3.50;;;;;;;;;;4988933;28;20979;-69
2021/08/22 14:02:32;;;;;;;4.60;3.50;;;;;;;;;;4992449;28;20906;-69
2021/08/22 14:04:58;;;;;;;4.40;3.23;;;;;;;;;;5005118;28;20444;-68
2021/08/22 14:07:24;;;;;;;4.07;3.10;;;;;;;;;;4992804;28;20467;-68
2021/08/22 14:09:50;;;;;;;5.13;2.77;;;;;;;;;;4994033;28;20433;-67
2021/08/22 14:12:16;;;;;;;6.20;3.60;;;;;;;;;;4980989;28;20539;-69
2021/08/22 14:14:42;;;;;;;4.17;3.20;;;;;;;;;;4994091;28;20451;-71
2021/08/22 14:17:08;;;;;;;5.53;2.90;;;;;;;;;;4993871;28;20436;-71
2021/08/22 14:19:35;;;;;;;4.97;2.80;;;;;;;;;;4994891;28;20443;-71
2021/08/22 14:22:01;;;;;;;5.10;3.33;;;;;;;;;;4992370;28;20476;-71
2021/08/22 14:24:27;;;;;;;5.83;3.73;;;;;;;;;;4997761;28;20509;-69
2021/08/22 14:26:53;;;;;;;4.53;3.37;;;;;;;;;;4996909;28;20429;-70
2021/08/22 14:29:19;;;;;;;4.60;3.30;;;;;;;;;;4994542;28;20791;-70
2021/08/22 14:31:45;;;;;;;5.27;3.90;;;;;;;;;;4981759;28;20453;-70
2021/08/22 14:34:11;;;;;;;4.13;3.53;;;;;;;;;;4987121;28;20448;-71
2021/08/22 14:36:38;;;;;;;4.40;3.00;;;;;;;;;;4989552;28;20976;-70
2021/08/22 14:39:05;;;;;;;8.63;3.30;;;;;;;;;;4992048;28;20443;-69
2021/08/22 14:41:31;;;;;;;4.87;3.40;;;;;;;;;;4995836;28;20405;-71
2021/08/22 14:43:57;;;;;;;7.40;3.33;;;;;;;;;;4994171;28;20452;-71
2021/08/22 14:46:24;;;;;;;7.73;3.40;;;;;;;;;;4995450;28;20416;-71